Terminal Aerodrome Forecast
Issued by NWS

Home | Current Version | Previous Version | Text Only | Print | Product List | Glossary On
Versions: 1 2 3 4 5 6 7 8 9 10 11 12 13 14 15 16 17 18 19 20 21
968
FTUS43 KDLH 220414 AAA
TAFHIB
TAF AMD
KHIB 220414Z 2204/2224 VRB03KT P6SM SCT050 BKN100
      TEMPO 2204/2206 -RA
     FM221000 VRB03KT 1SM BR VCSH OVC008
     FM221600 10003KT 3SM BR VCSH BKN015
     FM222000 36005KT 4SM -RA OVC008=

USA.gov is the U.S. government's official web portal to all federal, state and local government web resources and services.